BED weather

Laurence G Hanscom Field
Bedford, Massachusetts, United States

Public forecast

Using degrees Fahrenheit for public forecast. Weather courtesy of forecast.io.

METAR (pilot weather report)

Retrieved 2019/05/22 03:56 UTC (9 minutes ago):

KBED 220356Z AUTO 30009KT 10SM CLR 13/01 A2998 RMK AO2 SLP165 T01330011

TAF (pilot weather forecast)

Forecast is more than 12 hours old.

Retrieved 2019/05/21 00:21 UTC (1 day ago):

TAF KBED 212320Z 2200/2224 31015G28KT P6SM BKN070 FM220200 31011G20KT P6SM SCT070 FM220400 31009KT P6SM FEW060 FM221300 34010G20KT P6SM SKC FM222200 02003KT P6SM SKC